Time,TemperatureF,DewpointF,PressureIn,WindDirection,WindDirectionDegrees,WindSpeedMPH,WindSpeedGustMPH,Humidity,HourlyPrecipIn,Conditions,Clouds,dailyrainin,SolarRadiationWatts/m^2,SoftwareType,DateUTC
2013-02-21 00:01:00,-4.0,-14.0,-100.00,ENE,77,4.0,14.0,62,0.00,,,0.00,0.000000,,2013-02-21 06:01:00,
2013-02-21 00:11:00,-4.0,-14.0,-100.00,ENE,77,4.0,14.0,62,0.00,,,0.00,0.000000,,2013-02-21 06:11:00,
2013-02-21 00:21:00,-4.0,-14.0,-100.00,ENE,77,4.0,14.0,62,0.00,,,0.00,0.000000,,2013-02-21 06:21:00,
2013-02-21 00:31:00,-4.0,-14.0,-100.00,ENE,77,4.0,14.0,62,0.00,,,0.00,0.000000,,2013-02-21 06:31:00,
2013-02-21 00:41:00,-4.0,-14.0,-100.00,ENE,77,4.0,14.0,62,0.00,,,0.00,0.000000,,2013-02-21 06:41:00,
2013-02-21 01:11:00,-3.0,-13.0,-100.00,ENE,74,6.0,13.0,61,0.00,,,0.00,0.000000,,2013-02-21 07:11:00,
2013-02-21 01:21:00,-3.0,-13.0,-100.00,ENE,74,6.0,13.0,61,0.00,,,0.00,0.000000,,2013-02-21 07:21:00,
2013-02-21 01:32:00,-3.0,-13.0,-100.00,ENE,74,6.0,13.0,61,0.00,,,0.00,0.000000,,2013-02-21 07:32:00,
2013-02-21 01:42:00,-3.0,-13.0,-100.00,ENE,74,6.0,13.0,61,0.00,,,0.00,0.000000,,2013-02-21 07:42:00,
2013-02-21 02:11:00,-5.0,-15.0,-100.00,ENE,74,2.0,11.0,62,0.00,,,0.00,0.000000,,2013-02-21 08:11:00,
2013-02-21 02:21:00,-5.0,-15.0,-100.00,ENE,74,2.0,11.0,62,0.00,,,0.00,0.000000,,2013-02-21 08:21:00,
2013-02-21 02:32:00,-5.0,-15.0,-100.00,ENE,74,2.0,11.0,62,0.00,,,0.00,0.000000,,2013-02-21 08:32:00,
2013-02-21 02:42:00,-5.0,-15.0,-100.00,ENE,74,2.0,11.0,62,0.00,,,0.00,0.000000,,2013-02-21 08:42:00,
2013-02-21 03:11:00,-11.0,-18.0,-100.00,WNW,288,0.0,5.0,69,0.00,,,0.00,0.000000,,2013-02-21 09:11:00,
2013-02-21 03:22:00,-11.0,-18.0,-100.00,WNW,288,0.0,5.0,69,0.00,,,0.00,0.000000,,2013-02-21 09:22:00,
2013-02-21 03:31:00,-11.0,-18.0,-100.00,WNW,288,0.0,5.0,69,0.00,,,0.00,0.000000,,2013-02-21 09:31:00,
2013-02-21 03:41:00,-11.0,-18.0,-100.00,WNW,288,0.0,5.0,69,0.00,,,0.00,0.000000,,2013-02-21 09:41:00,
2013-02-21 04:11:00,-14.0,-21.0,-100.00,NE,56,0.0,4.0,71,0.00,,,-99.99,0.000000,,2013-02-21 10:11:00,
2013-02-21 04:21:00,-14.0,-21.0,-100.00,NE,56,0.0,4.0,71,0.00,,,-99.99,0.000000,,2013-02-21 10:21:00,
2013-02-21 04:31:00,-14.0,-21.0,-100.00,NE,56,0.0,4.0,71,0.00,,,-99.99,0.000000,,2013-02-21 10:31:00,
2013-02-21 04:41:00,-14.0,-21.0,-100.00,NE,56,0.0,4.0,71,0.00,,,-99.99,0.000000,,2013-02-21 10:41:00,
2013-02-21 05:01:00,-12.0,-19.0,-100.00,East,101,1.0,8.0,70,0.00,,,0.00,0.000000,,2013-02-21 11:01:00,
2013-02-21 05:11:00,-12.0,-19.0,-100.00,East,101,1.0,8.0,70,0.00,,,0.00,0.000000,,2013-02-21 11:11:00,
2013-02-21 05:21:00,-12.0,-19.0,-100.00,East,101,1.0,8.0,70,0.00,,,0.00,0.000000,,2013-02-21 11:21:00,
2013-02-21 05:31:00,-12.0,-19.0,-100.00,East,101,1.0,8.0,70,0.00,,,0.00,0.000000,,2013-02-21 11:31:00,
2013-02-21 05:41:00,-12.0,-19.0,-100.00,East,101,1.0,8.0,70,0.00,,,0.00,0.000000,,2013-02-21 11:41:00,
2013-02-21 06:11:00,-9.0,-17.0,-100.00,NE,51,2.0,10.0,68,0.00,,,0.00,0.000000,,2013-02-21 12:11:00,
2013-02-21 06:21:00,-9.0,-17.0,-100.00,NE,51,2.0,10.0,68,0.00,,,0.00,0.000000,,2013-02-21 12:21:00,
2013-02-21 06:32:00,-9.0,-17.0,-100.00,NE,51,2.0,10.0,68,0.00,,,0.00,0.000000,,2013-02-21 12:32:00,
2013-02-21 06:42:00,-9.0,-17.0,-100.00,NE,51,2.0,10.0,68,0.00,,,0.00,0.000000,,2013-02-21 12:42:00,
2013-02-21 07:12:00,-10.0,-18.0,-100.00,NE,36,1.0,9.0,67,0.00,,,-99.99,0.000000,,2013-02-21 13:12:00,
2013-02-21 07:22:00,-10.0,-18.0,-100.00,NE,36,1.0,9.0,67,0.00,,,-99.99,0.000000,,2013-02-21 13:22:00,
2013-02-21 07:32:00,-10.0,-18.0,-100.00,NE,36,1.0,9.0,67,0.00,,,-99.99,0.000000,,2013-02-21 13:32:00,
2013-02-21 07:41:00,-10.0,-18.0,-100.00,NE,36,1.0,9.0,67,0.00,,,-99.99,0.000000,,2013-02-21 13:41:00,
2013-02-21 08:11:00,-11.0,-18.0,-100.00,ENE,62,3.0,9.0,70,0.00,,,0.00,4.000000,,2013-02-21 14:11:00,
2013-02-21 08:21:00,-11.0,-18.0,-100.00,ENE,62,3.0,9.0,70,0.00,,,0.00,4.000000,,2013-02-21 14:21:00,
2013-02-21 08:32:00,-11.0,-18.0,-100.00,ENE,62,3.0,9.0,70,0.00,,,0.00,4.000000,,2013-02-21 14:32:00,
2013-02-21 08:42:00,-11.0,-18.0,-100.00,ENE,62,3.0,9.0,70,0.00,,,0.00,4.000000,,2013-02-21 14:42:00,
2013-02-21 09:12:00,-1.0,-14.0,-100.00,NE,53,6.0,16.0,54,0.00,,,0.00,44.000000,,2013-02-21 15:12:00,
2013-02-21 09:21:00,-1.0,-14.0,-100.00,NE,53,6.0,16.0,54,0.00,,,0.00,44.000000,,2013-02-21 15:21:00,
2013-02-21 09:42:00,-1.0,-14.0,-100.00,NE,53,6.0,16.0,54,0.00,,,0.00,44.000000,,2013-02-21 15:42:00,
2013-02-21 10:12:00,7.0,-13.0,-100.00,ENE,78,1.0,14.0,39,0.00,,,0.00,107.000000,,2013-02-21 16:12:00,
2013-02-21 10:22:00,7.0,-13.0,-100.00,ENE,78,1.0,14.0,39,0.00,,,0.00,107.000000,,2013-02-21 16:22:00,
2013-02-21 10:42:00,7.0,-13.0,-100.00,ENE,78,1.0,14.0,39,0.00,,,0.00,107.000000,,2013-02-21 16:42:00,
2013-02-21 11:11:00,10.0,-10.0,-100.00,NE,35,5.0,11.0,38,0.00,,,0.00,141.000000,,2013-02-21 17:11:00,
2013-02-21 11:21:00,10.0,-10.0,-100.00,NE,35,5.0,11.0,38,0.00,,,0.00,141.000000,,2013-02-21 17:21:00,
2013-02-21 11:32:00,10.0,-10.0,-100.00,NE,35,5.0,11.0,38,0.00,,,0.00,141.000000,,2013-02-21 17:32:00,
2013-02-21 11:42:00,10.0,-10.0,-100.00,NE,35,5.0,11.0,38,0.00,,,0.00,141.000000,,2013-02-21 17:42:00,
2013-02-21 12:11:00,14.0,-9.0,-100.00,NE,36,8.0,14.0,34,0.00,,,0.00,185.000000,,2013-02-21 18:11:00,
2013-02-21 12:22:00,14.0,-9.0,-100.00,NE,36,8.0,14.0,34,0.00,,,0.00,185.000000,,2013-02-21 18:22:00,
2013-02-21 12:32:00,14.0,-9.0,-100.00,NE,36,8.0,14.0,34,0.00,,,0.00,185.000000,,2013-02-21 18:32:00,
2013-02-21 12:42:00,14.0,-9.0,-100.00,NE,36,8.0,14.0,34,0.00,,,0.00,185.000000,,2013-02-21 18:42:00,
2013-02-21 13:12:00,21.0,-8.0,-100.00,NE,45,7.0,16.0,27,0.00,,,0.00,249.000000,,2013-02-21 19:12:00,
2013-02-21 13:21:00,21.0,-8.0,-100.00,NE,45,7.0,16.0,27,0.00,,,0.00,249.000000,,2013-02-21 19:21:00,
2013-02-21 13:31:00,21.0,-8.0,-100.00,NE,45,7.0,16.0,27,0.00,,,0.00,249.000000,,2013-02-21 19:31:00,
2013-02-21 13:41:00,21.0,-8.0,-100.00,NE,45,7.0,16.0,27,0.00,,,0.00,249.000000,,2013-02-21 19:41:00,
2013-02-21 14:11:00,23.0,-7.0,-100.00,ENE,73,6.0,14.0,26,0.00,,,0.00,244.000000,,2013-02-21 20:11:00,
2013-02-21 14:21:00,23.0,-7.0,-100.00,ENE,73,6.0,14.0,26,0.00,,,0.00,244.000000,,2013-02-21 20:21:00,
2013-02-21 14:32:00,23.0,-7.0,-100.00,ENE,73,6.0,14.0,26,0.00,,,0.00,244.000000,,2013-02-21 20:32:00,
2013-02-21 14:41:00,23.0,-7.0,-100.00,ENE,73,6.0,14.0,26,0.00,,,0.00,244.000000,,2013-02-21 20:41:00,
2013-02-21 15:11:00,24.0,-7.0,-100.00,ENE,68,8.0,19.0,24,0.00,,,0.00,328.000000,,2013-02-21 21:11:00,
2013-02-21 15:21:00,24.0,-7.0,-100.00,ENE,68,8.0,19.0,24,0.00,,,0.00,328.000000,,2013-02-21 21:21:00,
2013-02-21 15:31:00,24.0,-7.0,-100.00,ENE,68,8.0,19.0,24,0.00,,,0.00,328.000000,,2013-02-21 21:31:00,
2013-02-21 15:42:00,24.0,-7.0,-100.00,ENE,68,8.0,19.0,24,0.00,,,0.00,328.000000,,2013-02-21 21:42:00,
2013-02-21 16:11:00,21.0,-4.0,-100.00,ENE,68,10.0,26.0,33,0.00,,,0.00,252.000000,,2013-02-21 22:11:00,
2013-02-21 16:21:00,21.0,-4.0,-100.00,ENE,68,10.0,26.0,33,0.00,,,0.00,252.000000,,2013-02-21 22:21:00,
2013-02-21 16:32:00,21.0,-4.0,-100.00,ENE,68,10.0,26.0,33,0.00,,,0.00,252.000000,,2013-02-21 22:32:00,
2013-02-21 16:42:00,21.0,-4.0,-100.00,ENE,68,10.0,26.0,33,0.00,,,0.00,252.000000,,2013-02-21 22:42:00,
2013-02-21 17:11:00,20.0,-5.0,-100.00,East,84,6.0,16.0,32,0.00,,,0.00,51.000000,,2013-02-21 23:11:00,
2013-02-21 17:21:00,20.0,-5.0,-100.00,East,84,6.0,16.0,32,0.00,,,0.00,51.000000,,2013-02-21 23:21:00,
2013-02-21 17:32:00,20.0,-5.0,-100.00,East,84,6.0,16.0,32,0.00,,,0.00,51.000000,,2013-02-21 23:32:00,
2013-02-21 17:41:00,20.0,-5.0,-100.00,East,84,6.0,16.0,32,0.00,,,0.00,51.000000,,2013-02-21 23:41:00,
2013-02-21 18:11:00,15.0,-2.0,-100.00,ENE,69,1.0,11.0,47,0.00,,,0.00,17.000000,,2013-02-22 00:11:00,
2013-02-21 18:21:00,15.0,-2.0,-100.00,ENE,69,1.0,11.0,47,0.00,,,0.00,17.000000,,2013-02-22 00:21:00,
2013-02-21 18:32:00,15.0,-2.0,-100.00,ENE,69,1.0,11.0,47,0.00,,,0.00,17.000000,,2013-02-22 00:32:00,
2013-02-21 18:41:00,15.0,-2.0,-100.00,ENE,69,1.0,11.0,47,0.00,,,0.00,17.000000,,2013-02-22 00:41:00,
2013-02-21 19:11:00,10.0,-3.0,-100.00,ENE,66,2.0,7.0,56,0.00,,,0.00,0.000000,,2013-02-22 01:11:00,
2013-02-21 19:21:00,10.0,-3.0,-100.00,ENE,66,2.0,7.0,56,0.00,,,0.00,0.000000,,2013-02-22 01:21:00,
2013-02-21 19:32:00,10.0,-3.0,-100.00,ENE,66,2.0,7.0,56,0.00,,,0.00,0.000000,,2013-02-22 01:32:00,
2013-02-21 19:42:00,10.0,-3.0,-100.00,ENE,66,2.0,7.0,56,0.00,,,0.00,0.000000,,2013-02-22 01:42:00,
2013-02-21 20:11:00,9.0,-2.0,-100.00,ENE,70,4.0,10.0,60,0.00,,,0.00,0.000000,,2013-02-22 02:11:00,
2013-02-21 20:21:00,9.0,-2.0,-100.00,ENE,70,4.0,10.0,60,0.00,,,0.00,0.000000,,2013-02-22 02:21:00,
2013-02-21 20:32:00,9.0,-2.0,-100.00,ENE,70,4.0,10.0,60,0.00,,,0.00,0.000000,,2013-02-22 02:32:00,
2013-02-21 20:42:00,9.0,-2.0,-100.00,ENE,70,4.0,10.0,60,0.00,,,0.00,0.000000,,2013-02-22 02:42:00,
2013-02-21 21:11:00,12.0,0.0,-100.00,ENE,76,4.0,11.0,59,0.00,,,0.00,0.000000,,2013-02-22 03:11:00,
2013-02-21 21:21:00,12.0,0.0,-100.00,ENE,76,4.0,11.0,59,0.00,,,0.00,0.000000,,2013-02-22 03:21:00,
2013-02-21 21:32:00,12.0,0.0,-100.00,ENE,76,4.0,11.0,59,0.00,,,0.00,0.000000,,2013-02-22 03:32:00,
2013-02-21 21:42:00,12.0,0.0,-100.00,ENE,76,4.0,11.0,59,0.00,,,0.00,0.000000,,2013-02-22 03:42:00,
2013-02-21 22:11:00,4.0,-2.0,-100.00,NE,55,2.0,6.0,75,0.00,,,0.00,0.000000,,2013-02-22 04:11:00,
2013-02-21 22:21:00,4.0,-2.0,-100.00,NE,55,2.0,6.0,75,0.00,,,0.00,0.000000,,2013-02-22 04:21:00,
2013-02-21 22:32:00,4.0,-2.0,-100.00,NE,55,2.0,6.0,75,0.00,,,0.00,0.000000,,2013-02-22 04:32:00,
2013-02-21 22:42:00,4.0,-2.0,-100.00,NE,55,2.0,6.0,75,0.00,,,0.00,0.000000,,2013-02-22 04:42:00,
2013-02-21 23:12:00,10.0,1.0,-100.00,ENE,71,5.0,11.0,65,0.00,,,0.00,0.000000,,2013-02-22 05:12:00,
2013-02-21 23:22:00,10.0,1.0,-100.00,ENE,71,5.0,11.0,65,0.00,,,0.00,0.000000,,2013-02-22 05:22:00,
2013-02-21 23:32:00,10.0,1.0,-100.00,ENE,71,5.0,11.0,65,0.00,,,0.00,0.000000,,2013-02-22 05:32:00,
2013-02-21 23:42:00,10.0,1.0,-100.00,ENE,71,5.0,11.0,65,0.00,,,0.00,0.000000,,2013-02-22 05:42:00,